Time;durP1;ratioP1;P1;durP2;ratioP2;P2;SDS_P1;SDS_P2;PMS_P1;PMS_P2;Temp;Humidity;BMP_temperature;BMP_pressure;BME280_temperature;BME280_humidity;BME280_pressure;Samples;Min_cycle;Max_cycle;Signal;HPM_P1;HPM_P2
2023/03/24 00:02:29;;;;;;;;;;;;;;;18.99;56.79;99862.96;2347721;75;51556;-74
2023/03/24 00:05:31;;;;;;;;;;;;;;;18.99;56.75;99858.94;2317937;76;50368;-74
2023/03/24 00:08:34;;;;;;;;;;;;;;;18.98;56.81;99850.05;2305425;76;50634;-74
2023/03/24 00:11:36;;;;;;;;;;;;;;;18.97;56.80;99853.77;2314424;76;50730;-75
2023/03/24 00:14:38;;;;;;;;;;;;;;;18.96;56.89;99847.27;2280926;77;50911;-75
2023/03/24 00:17:40;;;;;;;;;;;;;;;18.96;56.85;99841.91;2281887;77;51479;-74
2023/03/24 00:20:41;;;;;;;;;;;;;;;18.91;57.13;99838.00;2314051;77;50775;-75
2023/03/24 00:23:43;;;;;;;;;;;;;;;18.92;57.01;99848.20;2281082;77;50652;-75
2023/03/24 00:26:45;;;;;;;;;;;;;;;18.90;57.04;99843.03;2281469;77;51508;-75
2023/03/24 00:29:47;;;;;;;;;;;;;;;18.91;57.02;99843.88;2281447;77;51652;-75
2023/03/24 00:32:48;;;;;;;;;;;;;;;18.91;57.07;99833.16;2281228;77;51416;-75
2023/03/24 00:35:50;;;;;;;;;;;;;;;18.89;57.15;99835.22;2280832;77;50694;-75
2023/03/24 00:38:52;;;;;;;;;;;;;;;18.87;57.15;99830.56;2267879;76;51150;-75
2023/03/24 00:41:57;;;;;;;;;;;;;;;18.87;57.13;99826.02;2312383;77;51550;-75
2023/03/24 00:44:57;;;;;;;;;;;;;;;18.87;57.16;99819.32;2281563;77;22544;-75
2023/03/24 00:47:58;;;;;;;;;;;;;;;18.87;57.14;99823.34;2312548;77;50604;-74
2023/03/24 00:51:01;;;;;;;;;;;;;;;18.84;57.26;99821.08;2256090;77;51011;-74
2023/03/24 00:54:03;;;;;;;;;;;;;;;18.85;57.20;99818.70;2312325;77;50680;-74
2023/03/24 00:57:05;;;;;;;;;;;;;;;18.87;57.20;99815.30;2312362;77;50430;-74
2023/03/24 01:00:18;;;;;;;;;;;;;;;18.87;57.09;99801.08;2312292;77;51562;-74
2023/03/24 01:03:16;;;;;;;;;;;;;;;18.85;57.09;99796.44;2311851;76;22303;-74
2023/03/24 01:06:21;;;;;;;;;;;;;;;18.85;57.24;99789.73;2255960;77;52073;-74
2023/03/24 01:09:21;;;;;;;;;;;;;;;18.83;57.26;99791.78;2324100;76;22646;-74
2023/03/24 01:12:24;;;;;;;;;;;;;;;18.84;57.13;99793.45;2312532;77;50396;-74
2023/03/24 01:15:28;;;;;;;;;;;;;;;18.85;57.20;99797.25;2280432;77;52361;-74
2023/03/24 01:18:30;;;;;;;;;;;;;;;18.83;57.23;99785.94;2281527;77;51590;-74
2023/03/24 01:21:33;;;;;;;;;;;;;;;18.85;57.12;99781.17;2281451;77;51535;-74
2023/03/24 01:24:35;;;;;;;;;;;;;;;18.86;56.97;99765.41;2312695;75;22387;-74
2023/03/24 01:27:37;;;;;;;;;;;;;;;18.84;57.12;99758.61;2256394;77;51235;-75
2023/03/24 01:30:39;;;;;;;;;;;;;;;18.82;57.25;99756.13;2281253;77;50020;-74
2023/03/24 01:33:40;;;;;;;;;;;;;;;18.81;57.27;99755.83;2312258;77;51656;-75
2023/03/24 01:36:42;;;;;;;;;;;;;;;18.80;57.29;99747.45;2292254;77;50714;-75
2023/03/24 01:39:43;;;;;;;;;;;;;;;18.84;57.07;99740.67;2323712;76;50398;-75
2023/03/24 01:42:45;;;;;;;;;;;;;;;18.84;57.10;99740.67;2256366;77;51737;-75
2023/03/24 01:46:04;;;;;;;;;;;;;;;18.82;57.19;99736.02;2280800;77;50271;-75
2023/03/24 01:49:06;;;;;;;;;;;;;;;18.82;57.15;99726.64;2220579;79;50270;-75
2023/03/24 01:52:09;;;;;;;;;;;;;;;18.82;57.31;99705.72;2220221;80;51485;-75
2023/03/24 01:55:14;;;;;;;;;;;;;;;18.83;57.24;99713.57;2219810;80;50642;-75
2023/03/24 01:58:16;;;;;;;;;;;;;;;18.80;57.39;99720.66;2220187;80;51597;-75
2023/03/24 02:01:18;;;;;;;;;;;;;;;18.82;57.18;99710.56;2220338;80;50354;-75
2023/03/24 02:04:19;;;;;;;;;;;;;;;18.81;57.21;99708.92;2220094;80;51296;-75
2023/03/24 02:07:28;;;;;;;;;;;;;;;18.81;57.25;99705.43;2196241;80;52508;-75
2023/03/24 02:10:30;;;;;;;;;;;;;;;18.83;57.21;99696.64;2235562;78;49941;-75
2023/03/24 02:13:32;;;;;;;;;;;;;;;18.81;57.28;99690.16;2220051;80;51525;-75
2023/03/24 02:16:36;;;;;;;;;;;;;;;18.80;57.24;99682.32;2220415;80;51401;-74
2023/03/24 02:19:39;;;;;;;;;;;;;;;18.82;57.28;99689.64;2196324;80;51004;-76
2023/03/24 02:22:42;;;;;;;;;;;;;;;18.81;57.27;99675.42;2247215;77;50413;-74
2023/03/24 02:26:02;;;;;;;;;;;;;;;18.79;57.38;99670.78;2311810;77;50378;-74
2023/03/24 02:29:05;;;;;;;;;;;;;;;18.81;57.21;99666.05;2312197;77;50134;-74
2023/03/24 02:32:09;;;;;;;;;;;;;;;18.79;57.38;99657.38;2281062;77;51751;-75
2023/03/24 02:35:28;;;;;;;;;;;;;;;18.81;57.30;99655.84;2310819;77;51614;-74
2023/03/24 02:38:33;;;;;;;;;;;;;;;18.80;57.30;99652.84;2320931;76;51523;-74
2023/03/24 02:41:42;;;;;;;;;;;;;;;18.79;57.38;99652.02;2268254;77;50342;-75
2023/03/24 02:44:51;;;;;;;;;;;;;;;18.81;57.18;99652.64;2280964;77;51193;-74
2023/03/24 02:47:57;;;;;;;;;;;;;;;18.79;57.39;99648.52;2274415;77;51470;-74
2023/03/24 02:51:12;;;;;;;;;;;;;;;18.78;57.44;99649.54;2311686;75;51463;-73
2023/03/24 02:54:18;;;;;;;;;;;;;;;18.76;57.39;99640.39;2311542;76;50066;-73
2023/03/24 02:57:34;;;;;;;;;;;;;;;18.76;57.46;99645.75;2280834;77;51611;-73
2023/03/24 03:00:41;;;;;;;;;;;;;;;18.76;57.47;99648.42;2312019;77;51702;-74
2023/03/24 03:03:50;;;;;;;;;;;;;;;18.75;57.48;99638.72;2310724;76;50173;-74
2023/03/24 03:06:53;;;;;;;;;;;;;;;18.77;57.47;99635.32;2311968;77;50652;-74
2023/03/24 03:09:56;;;;;;;;;;;;;;;18.76;57.54;99624.30;2293116;77;52706;-74
2023/03/24 03:12:58;;;;;;;;;;;;;;;18.77;57.37;99623.27;2289707;77;51495;-74
2023/03/24 03:16:02;;;;;;;;;;;;;;;18.77;57.41;99623.78;2311812;76;50294;-74
2023/03/24 03:19:08;;;;;;;;;;;;;;;18.78;57.35;99618.23;2311968;76;50248;-74
2023/03/24 03:22:10;;;;;;;;;;;;;;;18.77;57.28;99611.20;2311126;77;22469;-74
2023/03/24 03:25:12;;;;;;;;;;;;;;;18.76;57.43;99620.28;2311640;77;50397;-74
2023/03/24 03:28:16;;;;;;;;;;;;;;;18.76;57.31;99609.56;2311861;77;51403;-74
2023/03/24 03:31:22;;;;;;;;;;;;;;;18.75;57.48;99605.22;2312339;76;22883;-74
2023/03/24 03:34:38;;;;;;;;;;;;;;;18.77;57.33;99605.02;2280189;77;51736;-74
2023/03/24 03:37:44;;;;;;;;;;;;;;;18.76;57.40;99597.51;2311908;77;50698;-74
2023/03/24 03:40:54;;;;;;;;;;;;;;;18.77;57.27;99591.63;2323511;76;50318;-74
2023/03/24 03:43:56;;;;;;;;;;;;;;;18.76;57.36;99583.30;2311732;76;50101;-74
2023/03/24 03:46:57;;;;;;;;;;;;;;;18.74;57.46;99582.13;2280667;77;52548;-74
2023/03/24 03:49:59;;;;;;;;;;;;;;;18.75;57.28;99585.12;2311984;77;51631;-74
2023/03/24 03:53:01;;;;;;;;;;;;;;;18.74;57.44;99575.94;2311845;76;50342;-74
2023/03/24 03:56:03;;;;;;;;;;;;;;;18.74;57.34;99567.37;2311594;77;50612;-74
2023/03/24 03:59:05;;;;;;;;;;;;;;;18.75;57.37;99573.06;2255709;77;51542;-74
2023/03/24 04:02:11;;;;;;;;;;;;;;;18.74;57.32;99568.72;2280713;77;50444;-74
2023/03/24 04:05:27;;;;;;;;;;;;;;;18.74;57.32;99566.04;2309985;77;50351;-74
2023/03/24 04:08:30;;;;;;;;;;;;;;;18.73;57.42;99560.39;2312419;75;50277;-74
2023/03/24 04:11:50;;;;;;;;;;;;;;;18.72;57.46;99563.56;2292703;77;51271;-74
2023/03/24 04:14:56;;;;;;;;;;;;;;;18.71;57.61;99544.50;2311657;77;51381;-74
2023/03/24 04:17:59;;;;;;;;;;;;;;;18.72;57.58;99540.78;2311807;77;51538;-73
2023/03/24 04:21:05;;;;;;;;;;;;;;;18.72;57.62;99540.78;2312010;77;51692;-73
2023/03/24 04:24:26;;;;;;;;;;;;;;;18.73;57.44;99536.27;2267787;77;50255;-73
2023/03/24 04:27:45;;;;;;;;;;;;;;;18.75;57.40;99530.19;2311784;76;22342;-74
2023/03/24 04:30:46;;;;;;;;;;;;;;;18.77;57.22;99520.09;2312010;76;22335;-73
2023/03/24 04:33:49;;;;;;;;;;;;;;;18.76;57.41;99519.80;2311624;77;51621;-73
2023/03/24 04:36:53;;;;;;;;;;;;;;;18.74;57.57;99518.33;2310534;76;51590;-73
2023/03/24 04:39:57;;;;;;;;;;;;;;;18.72;57.68;99502.45;2313234;76;51628;-73
2023/03/24 04:42:58;;;;;;;;;;;;;;;18.72;57.44;99492.55;2311987;76;22235;-73
2023/03/24 04:46:01;;;;;;;;;;;;;;;18.72;57.60;99494.41;2311701;77;50660;-74
2023/03/24 04:49:03;;;;;;;;;;;;;;;18.71;57.54;99486.08;2311934;77;51459;-74
2023/03/24 04:52:06;;;;;;;;;;;;;;;18.71;57.63;99494.12;2311909;77;51564;-74
2023/03/24 04:55:15;;;;;;;;;;;;;;;18.72;57.44;99491.73;2311536;75;50066;-74
2023/03/24 04:58:17;;;;;;;;;;;;;;;18.72;57.56;99490.39;2274464;77;50314;-74
2023/03/24 05:01:24;;;;;;;;;;;;;;;18.72;57.53;99479.67;2281066;77;52697;-73
2023/03/24 05:04:23;;;;;;;;;;;;;;;18.71;57.55;99487.42;2280245;77;22353;-73
2023/03/24 05:07:26;;;;;;;;;;;;;;;18.71;57.51;99476.70;2312419;77;51607;-73
2023/03/24 05:10:27;;;;;;;;;;;;;;;18.72;57.53;99472.97;2268666;76;53153;-73
2023/03/24 05:13:29;;;;;;;;;;;;;;;18.71;57.47;99480.20;2281982;77;51368;-73
2023/03/24 05:16:31;;;;;;;;;;;;;;;18.69;57.68;99474.22;2282497;77;51518;-73
2023/03/24 05:19:32;;;;;;;;;;;;;;;18.70;57.60;99470.53;2313827;75;51436;-71
2023/03/24 05:22:34;;;;;;;;;;;;;;;18.71;58.00;99472.69;2313692;76;51550;-72
2023/03/24 05:25:36;;;;;;;;;;;;;;;18.68;58.44;99470.44;2257146;77;51671;-72
2023/03/24 05:28:37;;;;;;;;;;;;;;;18.68;58.60;99470.44;2282364;77;50583;-72
2023/03/24 05:31:39;;;;;;;;;;;;;;;18.66;58.70;99462.59;2313675;77;51404;-71
2023/03/24 05:34:40;;;;;;;;;;;;;;;18.68;58.62;99462.39;2313510;77;50333;-72
2023/03/24 05:37:42;;;;;;;;;;;;;;;18.68;58.62;99459.72;2313708;75;50647;-71
2023/03/24 05:40:43;;;;;;;;;;;;;;;18.67;58.59;99460.73;2323556;76;51504;-72
2023/03/24 05:43:45;;;;;;;;;;;;;;;18.67;58.50;99472.27;2280553;77;51483;-72
2023/03/24 05:46:47;;;;;;;;;;;;;;;18.67;58.26;99468.77;2311878;77;51480;-72
2023/03/24 05:49:49;;;;;;;;;;;;;;;18.67;58.57;99461.55;2255686;77;52358;-72
2023/03/24 05:52:51;;;;;;;;;;;;;;;18.66;58.68;99462.59;2311783;77;50643;-72
2023/03/24 05:55:53;;;;;;;;;;;;;;;18.66;58.29;99465.27;2311457;76;50415;-73
2023/03/24 05:58:54;;;;;;;;;;;;;;;18.66;58.31;99461.78;2311830;77;50239;-73
2023/03/24 06:01:57;;;;;;;;;;;;;;;18.67;58.29;99456.72;2255998;77;49551;-73
2023/03/24 06:05:00;;;;;;;;;;;;;;;18.70;58.04;99449.58;2313553;77;51471;-73
2023/03/24 06:08:02;;;;;;;;;;;;;;;18.68;58.31;99455.70;2313129;75;51494;-73
2023/03/24 06:11:04;;;;;;;;;;;;;;;18.67;58.22;99440.11;2293283;77;51376;-73
2023/03/24 06:14:07;;;;;;;;;;;;;;;18.66;58.37;99437.66;2243680;78;50253;-73
2023/03/24 06:17:13;;;;;;;;;;;;;;;18.66;58.50;99439.00;2248012;77;50793;-73
2023/03/24 06:20:14;;;;;;;;;;;;;;;18.68;58.60;99431.58;2311735;77;22771;-72
2023/03/24 06:23:16;;;;;;;;;;;;;;;18.68;58.36;99431.06;2311366;77;52463;-73
2023/03/24 06:26:18;;;;;;;;;;;;;;;18.67;58.52;99425.38;2240145;78;51192;-73
2023/03/24 06:29:20;;;;;;;;;;;;;;;18.65;58.85;99420.77;2275203;78;51594;-73
2023/03/24 06:32:22;;;;;;;;;;;;;;;18.65;58.77;99422.61;2275399;77;50415;-73
2023/03/24 06:35:23;;;;;;;;;;;;;;;18.66;58.75;99417.05;2275063;78;50291;-74
2023/03/24 06:38:25;;;;;;;;;;;;;;;18.66;58.74;99413.55;2282089;77;51148;-73
2023/03/24 06:41:26;;;;;;;;;;;;;;;18.66;58.74;99409.01;2323532;76;50722;-74
2023/03/24 06:44:28;;;;;;;;;;;;;;;18.66;58.66;99406.33;2280464;77;50368;-73
2023/03/24 06:47:30;;;;;;;;;;;;;;;18.65;58.65;99406.03;2280591;77;50199;-73
2023/03/24 06:50:34;;;;;;;;;;;;;;;18.68;58.42;99408.28;2280873;77;49476;-74
2023/03/24 06:53:37;;;;;;;;;;;;;;;18.67;59.14;99407.14;2311657;77;50761;-74
2023/03/24 06:56:39;;;;;;;;;;;;;;;18.69;59.39;99411.78;2311844;75;51507;-73
2023/03/24 06:59:41;;;;;;;;;;;;;;;18.72;59.75;99405.98;2312035;76;51481;-74
2023/03/24 07:02:42;;;;;;;;;;;;;;;18.72;59.79;99403.31;2255814;77;52567;-74
2023/03/24 07:05:44;;;;;;;;;;;;;;;18.74;59.90;99395.88;2311594;77;51484;-73
2023/03/24 07:08:46;;;;;;;;;;;;;;;18.75;60.16;99398.89;2312476;75;50676;-73
2023/03/24 07:11:47;;;;;;;;;;;;;;;18.79;59.93;99392.07;2323803;74;52211;-73
2023/03/24 07:14:49;;;;;;;;;;;;;;;18.81;59.83;99387.33;2255868;77;51689;-73
2023/03/24 07:17:51;;;;;;;;;;;;;;;18.83;59.77;99382.58;2312404;77;50452;-75
2023/03/24 07:20:52;;;;;;;;;;;;;;;18.87;60.13;99381.62;2312488;77;51168;-76
2023/03/24 07:23:54;;;;;;;;;;;;;;;18.85;59.54;99375.12;2312178;76;51462;-74
2023/03/24 07:26:56;;;;;;;;;;;;;;;18.83;59.56;99361.14;2280834;77;51648;-75
2023/03/24 07:29:58;;;;;;;;;;;;;;;18.84;59.41;99366.79;2312294;76;51500;-75
2023/03/24 07:33:00;;;;;;;;;;;;;;;18.80;59.69;99357.52;2312492;77;50445;-73
2023/03/24 07:36:02;;;;;;;;;;;;;;;18.78;59.60;99362.30;2316121;75;51635;-74
2023/03/24 07:39:04;;;;;;;;;;;;;;;18.81;59.45;99357.84;2289775;76;52247;-74
2023/03/24 07:42:05;;;;;;;;;;;;;;;18.83;59.33;99350.91;2281434;77;51441;-74
2023/03/24 07:45:08;;;;;;;;;;;;;;;18.80;59.55;99353.50;2312454;77;51472;-74
2023/03/24 07:48:10;;;;;;;;;;;;;;;18.79;59.48;99362.59;2312687;77;50679;-73
2023/03/24 07:51:11;;;;;;;;;;;;;;;18.77;59.53;99352.60;2256789;77;51150;-74
2023/03/24 07:54:13;;;;;;;;;;;;;;;18.79;59.42;99363.94;2281420;77;49951;-74
2023/03/24 07:57:15;;;;;;;;;;;;;;;18.77;59.40;99361.98;2312770;76;50340;-73
2023/03/24 08:00:20;;;;;;;;;;;;;;;18.77;59.38;99358.48;2312775;77;50617;-74
2023/03/24 08:03:24;;;;;;;;;;;;;;;18.78;59.25;99367.66;2312504;77;50698;-74
2023/03/24 08:06:25;;;;;;;;;;;;;;;18.78;59.16;99376.20;2324590;76;22697;-74
2023/03/24 08:09:26;;;;;;;;;;;;;;;18.76;59.23;99363.03;2314463;76;51443;-74
2023/03/24 08:12:28;;;;;;;;;;;;;;;18.76;59.17;99357.67;2347921;76;51532;-74
2023/03/24 08:15:30;;;;;;;;;;;;;;;18.75;59.23;99359.19;2292479;76;51039;-73
2023/03/24 08:18:33;;;;;;;;;;;;;;;18.74;59.15;99361.05;2318621;76;50698;-74
2023/03/24 08:21:35;;;;;;;;;;;;;;;18.73;59.19;99363.44;2347966;74;51593;-74
2023/03/24 08:24:37;;;;;;;;;;;;;;;18.75;59.03;99347.97;2347901;74;50837;-75
2023/03/24 08:27:39;;;;;;;;;;;;;;;18.74;59.04;99358.89;2292520;76;50627;-75
2023/03/24 08:30:42;;;;;;;;;;;;;;;18.73;59.06;99358.08;2347946;76;50622;-73
2023/03/24 08:33:44;;;;;;;;;;;;;;;18.72;59.02;99359.09;2347716;76;50483;-74
2023/03/24 08:36:45;;;;;;;;;;;;;;;18.70;59.08;99347.77;2299259;76;49729;-74
2023/03/24 08:39:47;;;;;;;;;;;;;;;18.70;59.05;99358.48;2275988;78;50576;-73
2023/03/24 08:42:49;;;;;;;;;;;;;;;18.72;58.96;99347.03;2270825;78;50563;-74
2023/03/24 08:45:51;;;;;;;;;;;;;;;18.70;58.96;99345.93;2275858;78;51510;-73
2023/03/24 08:48:53;;;;;;;;;;;;;;;18.70;58.97;99337.89;2276028;78;51486;-74
2023/03/24 08:51:54;;;;;;;;;;;;;;;18.71;58.94;99356.94;2271010;77;52444;-74
2023/03/24 08:54:56;;;;;;;;;;;;;;;18.70;58.93;99349.95;2271463;77;51512;-74
2023/03/24 08:57:57;;;;;;;;;;;;;;;18.69;58.91;99344.80;2275815;77;51466;-74
2023/03/24 09:00:59;;;;;;;;;;;;;;;18.69;58.87;99341.59;2275784;78;51493;-73
2023/03/24 09:04:01;;;;;;;;;;;;;;;18.70;58.86;99350.44;2275450;78;51409;-73
2023/03/24 09:07:03;;;;;;;;;;;;;;;18.71;58.75;99352.11;2287261;76;51537;-73
2023/03/24 09:10:06;;;;;;;;;;;;;;;18.69;58.83;99347.47;2312420;77;50677;-74
2023/03/24 09:13:07;;;;;;;;;;;;;;;18.69;58.78;99355.52;2312318;77;51484;-74
2023/03/24 09:16:09;;;;;;;;;;;;;;;18.68;58.81;99368.09;2256139;77;51122;-74
2023/03/24 09:19:11;;;;;;;;;;;;;;;18.69;58.78;99366.23;2281124;77;50625;-74
2023/03/24 09:22:12;;;;;;;;;;;;;;;18.68;58.75;99370.77;2281199;77;50666;-73
2023/03/24 09:25:15;;;;;;;;;;;;;;;18.69;58.73;99367.56;2281046;77;51409;-73
2023/03/24 09:28:17;;;;;;;;;;;;;;;18.69;58.68;99366.23;2312583;77;52340;-73
2023/03/24 09:31:18;;;;;;;;;;;;;;;18.70;58.57;99375.90;2312583;77;51430;-74
2023/03/24 09:34:20;;;;;;;;;;;;;;;18.69;58.61;99383.64;2280973;77;51436;-74
2023/03/24 09:37:21;;;;;;;;;;;;;;;18.70;58.68;99381.25;2331320;76;50711;-74
2023/03/24 09:40:24;;;;;;;;;;;;;;;18.69;58.59;99387.14;2318239;76;52248;-74
2023/03/24 09:43:27;;;;;;;;;;;;;;;18.70;58.58;99375.90;2317974;76;50143;-74
2023/03/24 09:46:37;;;;;;;;;;;;;;;18.71;58.52;99376.22;2343622;76;50363;-75
2023/03/24 09:49:38;;;;;;;;;;;;;;;18.70;58.56;99382.10;2346645;76;51591;-73
2023/03/24 09:52:41;;;;;;;;;;;;;;;18.73;58.48;99388.89;2347686;74;50749;-74
2023/03/24 09:55:43;;;;;;;;;;;;;;;18.73;58.43;99384.88;2347607;75;51600;-75
2023/03/24 09:58:45;;;;;;;;;;;;;;;18.74;58.50;99387.03;2348297;75;50573;-74
2023/03/24 10:01:47;;;;;;;;;;;;;;;18.74;58.45;99387.84;2347712;75;50081;-74
2023/03/24 10:04:48;;;;;;;;;;;;;;;18.72;58.49;99388.56;2311081;76;51257;-74
2023/03/24 10:07:52;;;;;;;;;;;;;;;18.75;58.34;99397.55;2285543;75;51465;-75
2023/03/24 10:11:03;;;;;;;;;;;;;;;18.76;58.30;99392.51;2324195;76;50376;-74
2023/03/24 10:14:19;;;;;;;;;;;;;;;18.75;58.29;99398.89;2312132;77;50643;-75
2023/03/24 10:17:22;;;;;;;;;;;;;;;18.76;58.24;99404.56;2280905;77;52486;-75
2023/03/24 10:20:31;;;;;;;;;;;;;;;18.75;58.29;99395.36;2312239;76;51504;-75
2023/03/24 10:23:46;;;;;;;;;;;;;;;18.77;58.21;99400.84;2299792;77;51614;-74
2023/03/24 10:26:53;;;;;;;;;;;;;;;18.75;58.25;99396.70;2312696;77;50130;-74
2023/03/24 10:29:56;;;;;;;;;;;;;;;18.77;58.13;99399.50;2279990;77;51769;-74
2023/03/24 10:32:57;;;;;;;;;;;;;;;18.74;58.16;99405.26;2312521;77;51572;-75
2023/03/24 10:36:08;;;;;;;;;;;;;;;18.74;58.14;99404.45;2312432;77;51414;-75
2023/03/24 10:39:11;;;;;;;;;;;;;;;18.73;58.19;99391.57;2312006;77;49780;-74
2023/03/24 10:42:14;;;;;;;;;;;;;;;18.74;58.21;99397.75;2311102;76;51802;-74
2023/03/24 10:45:17;;;;;;;;;;;;;;;18.74;58.15;99401.77;2347643;76;50695;-73
2023/03/24 10:48:35;;;;;;;;;;;;;;;18.76;58.10;99399.20;2347672;74;50727;-75
2023/03/24 10:51:36;;;;;;;;;;;;;;;18.76;58.08;99403.23;2348185;75;51599;-74
2023/03/24 10:54:38;;;;;;;;;;;;;;;18.75;58.13;99390.00;2318173;76;51538;-74
2023/03/24 10:57:41;;;;;;;;;;;;;;;18.77;58.10;99397.34;2318530;76;50409;-74
2023/03/24 11:00:44;;;;;;;;;;;;;;;18.75;58.15;99400.22;2348203;74;50754;-74
2023/03/24 11:03:45;;;;;;;;;;;;;;;18.75;58.05;99397.55;2347791;76;51739;-74
2023/03/24 11:07:01;;;;;;;;;;;;;;;18.75;58.06;99404.24;2318172;76;51679;-74
2023/03/24 11:10:14;;;;;;;;;;;;;;;18.74;58.11;99403.92;2325987;76;50272;-74
2023/03/24 11:13:17;;;;;;;;;;;;;;;18.74;58.07;99402.58;2312400;77;50456;-74
2023/03/24 11:16:18;;;;;;;;;;;;;;;18.77;58.00;99408.06;2312418;77;52304;-75
2023/03/24 11:19:21;;;;;;;;;;;;;;;18.78;57.94;99416.39;2281197;77;49591;-75
2023/03/24 11:22:22;;;;;;;;;;;;;;;18.76;58.03;99411.79;2281424;77;53197;-75
2023/03/24 11:25:28;;;;;;;;;;;;;;;18.77;57.95;99415.58;2312331;76;50685;-74
2023/03/24 11:28:29;;;;;;;;;;;;;;;18.78;57.96;99411.03;2312614;76;50687;-74
2023/03/24 11:31:38;;;;;;;;;;;;;;;18.76;58.00;99419.30;2281216;77;49628;-74
2023/03/24 11:34:40;;;;;;;;;;;;;;;18.76;58.00;99414.47;2312732;76;22523;-75
2023/03/24 11:37:41;;;;;;;;;;;;;;;18.77;57.99;99410.22;2313451;76;22780;-75
2023/03/24 11:40:53;;;;;;;;;;;;;;;18.77;58.05;99398.16;2294064;76;50127;-75
2023/03/24 11:44:14;;;;;;;;;;;;;;;18.81;57.91;99406.61;2281116;77;51262;-76
2023/03/24 11:47:32;;;;;;;;;;;;;;;18.81;57.84;99412.78;2312702;77;50457;-73
2023/03/24 11:50:34;;;;;;;;;;;;;;;18.84;57.83;99415.03;2312714;77;50628;-73
2023/03/24 11:53:43;;;;;;;;;;;;;;;18.84;57.84;99418.23;2312332;76;51691;-73
2023/03/24 11:56:49;;;;;;;;;;;;;;;18.82;57.83;99425.66;2281319;75;52532;-73
2023/03/24 11:59:56;;;;;;;;;;;;;;;18.82;57.84;99423.80;2312595;75;50398;-75
2023/03/24 12:03:06;;;;;;;;;;;;;;;18.85;57.77;99423.89;2312591;76;21942;-75
2023/03/24 12:06:18;;;;;;;;;;;;;;;18.82;57.87;99437.20;2312467;76;51424;-75
2023/03/24 12:09:24;;;;;;;;;;;;;;;18.81;57.87;99436.91;2280301;77;50857;-75
2023/03/24 12:12:36;;;;;;;;;;;;;;;18.79;57.96;99437.63;2344340;76;50640;-74
2023/03/24 12:15:49;;;;;;;;;;;;;;;18.81;57.84;99423.50;2347553;76;50339;-75
2023/03/24 12:19:09;;;;;;;;;;;;;;;18.77;58.00;99400.84;2347655;74;51413;-75
2023/03/24 12:22:29;;;;;;;;;;;;;;;18.78;57.95;99414.56;2318980;76;49646;-74
2023/03/24 12:25:42;;;;;;;;;;;;;;;18.79;57.89;99412.17;2347538;75;50288;-74
2023/03/24 12:28:48;;;;;;;;;;;;;;;18.80;57.85;99412.46;2347288;76;50769;-74
2023/03/24 12:32:08;;;;;;;;;;;;;;;18.82;57.78;99417.62;2347560;74;50770;-74
2023/03/24 12:35:20;;;;;;;;;;;;;;;18.82;57.75;99429.16;2318013;76;50108;-74
2023/03/24 12:38:27;;;;;;;;;;;;;;;18.80;57.81;99438.44;2349272;74;50397;-75
2023/03/24 12:41:30;;;;;;;;;;;;;;;18.80;57.82;99443.80;2335521;75;50760;-75
2023/03/24 12:44:33;;;;;;;;;;;;;;;18.77;57.90;99439.69;2347566;76;50452;-74
2023/03/24 12:47:53;;;;;;;;;;;;;;;18.78;57.83;99437.34;2318617;76;49603;-75
2023/03/24 12:51:13;;;;;;;;;;;;;;;18.78;57.83;99437.34;2347719;75;51462;-74
2023/03/24 12:54:19;;;;;;;;;;;;;;;18.76;57.88;99432.70;2347468;75;51484;-74
2023/03/24 12:57:22;;;;;;;;;;;;;;;18.76;57.83;99422.51;2347524;76;50809;-74
2023/03/24 13:00:25;;;;;;;;;;;;;;;18.75;57.87;99414.97;2317942;76;51168;-75
2023/03/24 13:03:37;;;;;;;;;;;;;;;18.74;57.89;99417.84;2346865;75;50776;-74
2023/03/24 13:06:40;;;;;;;;;;;;;;;18.77;57.73;99434.34;2347872;76;22371;-74
2023/03/24 13:09:45;;;;;;;;;;;;;;;18.77;57.78;99437.02;2328873;75;50303;-74
2023/03/24 13:12:57;;;;;;;;;;;;;;;18.77;57.72;99440.22;2280708;77;52549;-74
2023/03/24 13:16:00;;;;;;;;;;;;;;;18.76;57.71;99439.41;2312220;77;51556;-74
2023/03/24 13:19:02;;;;;;;;;;;;;;;18.77;57.67;99438.36;2312222;76;50423;-74
2023/03/24 13:22:04;;;;;;;;;;;;;;;18.78;57.65;99444.03;2312282;77;51671;-75
2023/03/24 13:25:07;;;;;;;;;;;;;;;18.75;57.71;99443.59;2280723;77;51745;-75
2023/03/24 13:28:10;;;;;;;;;;;;;;;18.77;57.63;99438.88;2312389;77;50760;-74
2023/03/24 13:31:12;;;;;;;;;;;;;;;18.76;57.60;99439.41;2312541;77;50759;-74
2023/03/24 13:34:18;;;;;;;;;;;;;;;18.77;57.59;99445.05;2312180;77;51372;-74
2023/03/24 13:37:24;;;;;;;;;;;;;;;18.76;57.61;99411.79;2279831;77;51779;-74
2023/03/24 13:40:26;;;;;;;;;;;;;;;18.76;57.58;99424.66;2322348;76;51386;-75
2023/03/24 13:43:29;;;;;;;;;;;;;;;18.78;57.51;99452.08;2312315;76;51490;-74
2023/03/24 13:46:31;;;;;;;;;;;;;;;18.79;57.49;99491.75;2312458;77;51568;-75
2023/03/24 13:49:32;;;;;;;;;;;;;;;18.78;57.53;99506.16;2281239;77;52389;-74
2023/03/24 13:52:35;;;;;;;;;;;;;;;18.78;57.49;99527.11;2312417;77;51407;-75
2023/03/24 13:55:38;;;;;;;;;;;;;;;18.78;57.50;99529.79;2312306;77;50269;-75
2023/03/24 13:59:00;;;;;;;;;;;;;;;18.76;57.55;99518.45;2312527;76;50704;-75
2023/03/24 14:02:13;;;;;;;;;;;;;;;18.76;57.52;99508.26;2281252;77;51529;-73
2023/03/24 14:05:25;;;;;;;;;;;;;;;18.77;57.47;99515.25;2311186;76;50770;-74
2023/03/24 14:08:37;;;;;;;;;;;;;;;18.77;57.46;99512.05;2311048;77;50782;-74
2023/03/24 14:11:40;;;;;;;;;;;;;;;18.76;57.50;99523.00;2324385;76;51601;-75
2023/03/24 14:15:00;;;;;;;;;;;;;;;18.73;57.56;99524.21;2280766;77;50148;-75
2023/03/24 14:18:07;;;;;;;;;;;;;;;18.74;57.49;99523.17;2312445;77;51569;-74
2023/03/24 14:21:08;;;;;;;;;;;;;;;18.73;57.50;99522.88;2293622;76;51456;-75
2023/03/24 14:24:16;;;;;;;;;;;;;;;18.74;57.44;99503.59;2312493;77;51597;-73
2023/03/24 14:27:36;;;;;;;;;;;;;;;18.73;57.49;99536.27;2281570;77;49955;-74
2023/03/24 14:30:39;;;;;;;;;;;;;;;18.76;57.39;99527.02;2312875;77;50440;-74
2023/03/24 14:33:42;;;;;;;;;;;;;;;18.75;57.39;99492.67;2281702;77;50468;-75
2023/03/24 14:36:44;;;;;;;;;;;;;;;18.72;57.44;99466.28;2279061;77;51770;-75
2023/03/24 14:39:46;;;;;;;;;;;;;;;18.74;57.36;99437.94;2324928;76;51668;-75
2023/03/24 14:42:49;;;;;;;;;;;;;;;18.75;57.35;99423.49;2313712;77;51435;-75
2023/03/24 14:45:52;;;;;;;;;;;;;;;18.73;57.39;99423.73;2314146;77;50748;-76
2023/03/24 14:49:08;;;;;;;;;;;;;;;18.71;57.43;99443.20;2315095;77;50846;-75
2023/03/24 14:52:11;;;;;;;;;;;;;;;18.75;57.37;99457.84;2313407;77;51468;-75
2023/03/24 14:55:17;;;;;;;;;;;;;;;18.75;57.31;99456.50;2281358;77;51788;-75
2023/03/24 14:58:31;;;;;;;;;;;;;;;18.76;57.29;99467.54;2312738;76;22492;-75
2023/03/24 15:01:33;;;;;;;;;;;;;;;18.77;57.26;99477.73;2312230;75;50289;-75
2023/03/24 15:04:38;;;;;;;;;;;;;;;18.76;57.28;99467.54;2313127;77;50730;-75
2023/03/24 15:07:38;;;;;;;;;;;;;;;18.76;57.29;99471.56;2283101;77;22372;-75
2023/03/24 15:10:48;;;;;;;;;;;;;;;18.76;57.26;99472.90;2313099;77;50653;-75
2023/03/24 15:13:50;;;;;;;;;;;;;;;18.77;57.23;99481.23;2313114;77;50613;-75
2023/03/24 15:16:56;;;;;;;;;;;;;;;18.75;57.31;99481.95;2313163;77;50714;-75
2023/03/24 15:19:58;;;;;;;;;;;;;;;18.73;57.41;99477.32;2281622;77;51309;-75
2023/03/24 15:23:01;;;;;;;;;;;;;;;18.74;57.37;99469.57;2281786;77;50765;-75
2023/03/24 15:26:04;;;;;;;;;;;;;;;18.73;57.38;99474.64;2308553;76;50771;-75
2023/03/24 15:29:06;;;;;;;;;;;;;;;18.75;57.33;99464.53;2311214;76;50707;-75
2023/03/24 15:32:09;;;;;;;;;;;;;;;18.74;57.37;99484.31;2256411;77;51200;-75
2023/03/24 15:35:21;;;;;;;;;;;;;;;18.72;57.38;99493.89;2308509;76;49938;-74
2023/03/24 15:38:29;;;;;;;;;;;;;;;18.75;57.38;99489.14;2313603;77;50354;-75
2023/03/24 15:41:31;;;;;;;;;;;;;;;18.71;57.51;99488.23;2314526;77;51632;-75
2023/03/24 15:44:34;;;;;;;;;;;;;;;18.71;57.53;99491.44;2258177;77;52499;-76
2023/03/24 15:47:37;;;;;;;;;;;;;;;18.72;57.44;99490.39;2314452;76;50368;-75
2023/03/24 15:50:39;;;;;;;;;;;;;;;18.70;57.50;99493.30;2314515;75;51483;-75
2023/03/24 15:53:50;;;;;;;;;;;;;;;18.71;57.50;99500.30;2314332;76;51454;-75
2023/03/24 15:57:03;;;;;;;;;;;;;;;18.69;57.53;99496.18;2283383;77;51232;-75
2023/03/24 16:00:10;;;;;;;;;;;;;;;18.66;57.61;99503.31;2301982;77;51497;-75
2023/03/24 16:03:10;;;;;;;;;;;;;;;18.66;57.57;99520.20;2314219;76;22325;-76